sensor_id;sensor_type;location;lat;lon;timestamp;P1;durP1;ratioP1;P2;durP2;ratioP2
22160;SDS011;49035;48.812;11.762;2022-12-10T00:00:18;29.27;;;14.90;;
22160;SDS011;49035;48.812;11.762;2022-12-10T00:02:43;25.50;;;13.50;;
22160;SDS011;49035;48.812;11.762;2022-12-10T00:05:09;27.40;;;14.73;;
22160;SDS011;49035;48.812;11.762;2022-12-10T00:07:34;27.43;;;14.73;;
22160;SDS011;49035;48.812;11.762;2022-12-10T00:10:00;23.03;;;12.13;;
22160;SDS011;49035;48.812;11.762;2022-12-10T00:12:26;30.53;;;13.67;;
22160;SDS011;49035;48.812;11.762;2022-12-10T00:14:51;25.40;;;13.53;;
22160;SDS011;49035;48.812;11.762;2022-12-10T00:17:17;27.77;;;14.13;;
22160;SDS011;49035;48.812;11.762;2022-12-10T00:19:42;31.33;;;14.33;;
22160;SDS011;49035;48.812;11.762;2022-12-10T00:22:08;27.00;;;15.50;;
22160;SDS011;49035;48.812;11.762;2022-12-10T00:24:34;29.03;;;14.53;;
22160;SDS011;49035;48.812;11.762;2022-12-10T00:26:59;29.10;;;15.17;;
22160;SDS011;49035;48.812;11.762;2022-12-10T00:29:25;31.20;;;16.10;;
22160;SDS011;49035;48.812;11.762;2022-12-10T00:31:50;28.50;;;15.30;;
22160;SDS011;49035;48.812;11.762;2022-12-10T00:34:16;34.27;;;17.77;;
22160;SDS011;49035;48.812;11.762;2022-12-10T00:36:45;38.20;;;18.77;;
22160;SDS011;49035;48.812;11.762;2022-12-10T00:39:14;38.60;;;18.37;;
22160;SDS011;49035;48.812;11.762;2022-12-10T00:41:41;36.57;;;17.77;;
22160;SDS011;49035;48.812;11.762;2022-12-10T00:44:07;34.23;;;17.30;;
22160;SDS011;49035;48.812;11.762;2022-12-10T00:46:33;31.83;;;15.73;;
22160;SDS011;49035;48.812;11.762;2022-12-10T00:48:59;30.00;;;15.17;;
22160;SDS011;49035;48.812;11.762;2022-12-10T00:51:25;30.17;;;15.23;;
22160;SDS011;49035;48.812;11.762;2022-12-10T00:53:52;27.60;;;14.70;;
22160;SDS011;49035;48.812;11.762;2022-12-10T00:56:20;25.63;;;14.47;;
22160;SDS011;49035;48.812;11.762;2022-12-10T00:58:48;27.20;;;13.70;;
22160;SDS011;49035;48.812;11.762;2022-12-10T01:03:52;24.83;;;13.73;;
22160;SDS011;49035;48.812;11.762;2022-12-10T01:06:25;26.33;;;13.53;;
22160;SDS011;49035;48.812;11.762;2022-12-10T01:08:53;28.03;;;13.97;;
22160;SDS011;49035;48.812;11.762;2022-12-10T01:11:21;26.40;;;14.27;;
22160;SDS011;49035;48.812;11.762;2022-12-10T01:13:49;27.63;;;14.93;;
22160;SDS011;49035;48.812;11.762;2022-12-10T01:16:17;27.90;;;13.83;;
22160;SDS011;49035;48.812;11.762;2022-12-10T01:18:44;28.17;;;14.60;;
22160;SDS011;49035;48.812;11.762;2022-12-10T01:21:11;26.53;;;14.07;;
22160;SDS011;49035;48.812;11.762;2022-12-10T01:23:39;27.60;;;14.53;;
22160;SDS011;49035;48.812;11.762;2022-12-10T01:26:07;29.37;;;14.93;;
22160;SDS011;49035;48.812;11.762;2022-12-10T01:28:36;26.60;;;14.40;;
22160;SDS011;49035;48.812;11.762;2022-12-10T01:31:05;27.33;;;14.67;;
22160;SDS011;49035;48.812;11.762;2022-12-10T01:33:36;28.37;;;14.47;;
22160;SDS011;49035;48.812;11.762;2022-12-10T01:36:07;27.77;;;14.80;;
22160;SDS011;49035;48.812;11.762;2022-12-10T01:38:38;28.00;;;13.77;;
22160;SDS011;49035;48.812;11.762;2022-12-10T01:41:04;25.70;;;13.57;;
22160;SDS011;49035;48.812;11.762;2022-12-10T01:46:24;26.90;;;14.43;;
22160;SDS011;49035;48.812;11.762;2022-12-10T01:48:58;28.20;;;15.40;;
22160;SDS011;49035;48.812;11.762;2022-12-10T01:51:26;27.97;;;15.23;;
22160;SDS011;49035;48.812;11.762;2022-12-10T01:53:53;29.13;;;15.37;;
22160;SDS011;49035;48.812;11.762;2022-12-10T01:56:20;23.07;;;13.43;;
22160;SDS011;49035;48.812;11.762;2022-12-10T01:58:47;24.70;;;13.47;;
22160;SDS011;49035;48.812;11.762;2022-12-10T02:04:08;27.53;;;14.17;;
22160;SDS011;49035;48.812;11.762;2022-12-10T02:06:48;24.70;;;12.87;;
22160;SDS011;49035;48.812;11.762;2022-12-10T02:09:38;25.23;;;13.73;;
22160;SDS011;49035;48.812;11.762;2022-12-10T02:12:14;28.80;;;14.63;;
22160;SDS011;49035;48.812;11.762;2022-12-10T02:15:05;28.60;;;14.73;;
22160;SDS011;49035;48.812;11.762;2022-12-10T02:17:37;31.00;;;14.97;;
22160;SDS011;49035;48.812;11.762;2022-12-10T02:20:06;30.57;;;15.10;;
22160;SDS011;49035;48.812;11.762;2022-12-10T02:28:31;29.03;;;15.53;;
22160;SDS011;49035;48.812;11.762;2022-12-10T02:31:05;32.17;;;15.43;;
22160;SDS011;49035;48.812;11.762;2022-12-10T02:33:31;25.47;;;13.97;;
22160;SDS011;49035;48.812;11.762;2022-12-10T02:36:00;27.47;;;14.83;;
22160;SDS011;49035;48.812;11.762;2022-12-10T02:38:29;26.93;;;14.83;;
22160;SDS011;49035;48.812;11.762;2022-12-10T02:41:08;28.27;;;14.23;;
22160;SDS011;49035;48.812;11.762;2022-12-10T02:43:40;27.47;;;14.43;;
22160;SDS011;49035;48.812;11.762;2022-12-10T02:46:10;29.20;;;15.03;;
22160;SDS011;49035;48.812;11.762;2022-12-10T02:48:36;31.60;;;15.83;;
22160;SDS011;49035;48.812;11.762;2022-12-10T02:51:04;31.37;;;16.23;;
22160;SDS011;49035;48.812;11.762;2022-12-10T02:53:30;29.33;;;15.63;;
22160;SDS011;49035;48.812;11.762;2022-12-10T03:01:54;30.10;;;15.60;;
22160;SDS011;49035;48.812;11.762;2022-12-10T03:05:00;33.20;;;17.73;;
22160;SDS011;49035;48.812;11.762;2022-12-10T03:07:37;32.07;;;16.30;;
22160;SDS011;49035;48.812;11.762;2022-12-10T03:10:11;29.70;;;15.93;;
22160;SDS011;49035;48.812;11.762;2022-12-10T03:12:58;30.83;;;14.93;;
22160;SDS011;49035;48.812;11.762;2022-12-10T03:15:27;27.43;;;15.37;;
22160;SDS011;49035;48.812;11.762;2022-12-10T03:17:58;29.23;;;15.17;;
22160;SDS011;49035;48.812;11.762;2022-12-10T03:20:27;30.73;;;16.20;;
22160;SDS011;49035;48.812;11.762;2022-12-10T03:22:55;28.90;;;15.67;;
22160;SDS011;49035;48.812;11.762;2022-12-10T03:25:22;30.93;;;15.43;;
22160;SDS011;49035;48.812;11.762;2022-12-10T03:27:51;35.40;;;17.47;;
22160;SDS011;49035;48.812;11.762;2022-12-10T03:30:19;25.63;;;14.83;;
22160;SDS011;49035;48.812;11.762;2022-12-10T03:32:45;30.07;;;15.40;;
22160;SDS011;49035;48.812;11.762;2022-12-10T03:35:11;31.97;;;16.13;;
22160;SDS011;49035;48.812;11.762;2022-12-10T03:37:38;28.10;;;15.87;;
22160;SDS011;49035;48.812;11.762;2022-12-10T03:40:04;37.90;;;17.03;;
22160;SDS011;49035;48.812;11.762;2022-12-10T03:42:33;29.67;;;15.70;;
22160;SDS011;49035;48.812;11.762;2022-12-10T03:45:01;30.53;;;15.83;;
22160;SDS011;49035;48.812;11.762;2022-12-10T03:47:26;30.03;;;16.60;;
22160;SDS011;49035;48.812;11.762;2022-12-10T03:49:52;33.27;;;16.43;;
22160;SDS011;49035;48.812;11.762;2022-12-10T03:52:18;32.43;;;16.73;;
22160;SDS011;49035;48.812;11.762;2022-12-10T03:54:43;30.00;;;15.57;;
22160;SDS011;49035;48.812;11.762;2022-12-10T03:57:09;32.60;;;17.37;;
22160;SDS011;49035;48.812;11.762;2022-12-10T03:59:34;30.60;;;16.13;;
22160;SDS011;49035;48.812;11.762;2022-12-10T04:02:00;33.37;;;17.93;;
22160;SDS011;49035;48.812;11.762;2022-12-10T04:04:26;32.23;;;17.43;;
22160;SDS011;49035;48.812;11.762;2022-12-10T04:06:51;32.33;;;16.60;;
22160;SDS011;49035;48.812;11.762;2022-12-10T04:09:17;31.47;;;16.67;;
22160;SDS011;49035;48.812;11.762;2022-12-10T04:11:43;32.73;;;16.47;;
22160;SDS011;49035;48.812;11.762;2022-12-10T04:14:09;34.70;;;17.03;;
22160;SDS011;49035;48.812;11.762;2022-12-10T04:16:54;33.57;;;16.30;;
22160;SDS011;49035;48.812;11.762;2022-12-10T04:19:21;39.10;;;17.37;;
22160;SDS011;49035;48.812;11.762;2022-12-10T04:21:46;32.33;;;17.33;;
22160;SDS011;49035;48.812;11.762;2022-12-10T04:24:32;34.33;;;16.93;;
22160;SDS011;49035;48.812;11.762;2022-12-10T04:29:46;33.67;;;17.57;;
22160;SDS011;49035;48.812;11.762;2022-12-10T04:32:12;34.63;;;16.77;;
22160;SDS011;49035;48.812;11.762;2022-12-10T04:34:37;36.87;;;18.47;;
22160;SDS011;49035;48.812;11.762;2022-12-10T04:37:03;35.23;;;17.13;;
22160;SDS011;49035;48.812;11.762;2022-12-10T04:39:30;33.07;;;16.40;;
22160;SDS011;49035;48.812;11.762;2022-12-10T04:41:56;32.90;;;16.30;;
22160;SDS011;49035;48.812;11.762;2022-12-10T04:44:22;31.77;;;17.20;;
22160;SDS011;49035;48.812;11.762;2022-12-10T04:46:48;34.93;;;16.83;;
22160;SDS011;49035;48.812;11.762;2022-12-10T04:49:14;31.10;;;17.57;;
22160;SDS011;49035;48.812;11.762;2022-12-10T04:51:39;41.47;;;18.67;;
22160;SDS011;49035;48.812;11.762;2022-12-10T04:54:06;34.97;;;17.23;;
22160;SDS011;49035;48.812;11.762;2022-12-10T04:56:32;32.53;;;16.37;;
22160;SDS011;49035;48.812;11.762;2022-12-10T04:58:58;32.90;;;17.30;;
22160;SDS011;49035;48.812;11.762;2022-12-10T05:01:24;32.90;;;17.63;;
22160;SDS011;49035;48.812;11.762;2022-12-10T05:03:51;36.50;;;18.20;;
22160;SDS011;49035;48.812;11.762;2022-12-10T05:06:17;33.43;;;17.30;;
22160;SDS011;49035;48.812;11.762;2022-12-10T05:08:44;34.33;;;17.13;;
22160;SDS011;49035;48.812;11.762;2022-12-10T05:11:11;39.77;;;18.50;;
22160;SDS011;49035;48.812;11.762;2022-12-10T05:13:38;36.47;;;17.63;;
22160;SDS011;49035;48.812;11.762;2022-12-10T05:16:05;39.43;;;18.53;;
22160;SDS011;49035;48.812;11.762;2022-12-10T05:18:32;33.27;;;17.27;;
22160;SDS011;49035;48.812;11.762;2022-12-10T05:20:58;33.87;;;18.20;;
22160;SDS011;49035;48.812;11.762;2022-12-10T05:23:30;34.13;;;17.10;;
22160;SDS011;49035;48.812;11.762;2022-12-10T05:28:43;32.97;;;17.53;;
22160;SDS011;49035;48.812;11.762;2022-12-10T05:31:26;34.87;;;17.57;;
22160;SDS011;49035;48.812;11.762;2022-12-10T05:33:53;34.93;;;17.53;;
22160;SDS011;49035;48.812;11.762;2022-12-10T05:36:21;38.83;;;18.13;;
22160;SDS011;49035;48.812;11.762;2022-12-10T05:38:48;37.30;;;18.63;;
22160;SDS011;49035;48.812;11.762;2022-12-10T05:41:15;31.70;;;17.23;;
22160;SDS011;49035;48.812;11.762;2022-12-10T05:43:42;34.97;;;17.83;;
22160;SDS011;49035;48.812;11.762;2022-12-10T05:46:10;34.87;;;17.80;;
22160;SDS011;49035;48.812;11.762;2022-12-10T05:48:37;33.67;;;18.03;;
22160;SDS011;49035;48.812;11.762;2022-12-10T05:51:04;31.27;;;16.27;;
22160;SDS011;49035;48.812;11.762;2022-12-10T05:53:30;37.53;;;18.50;;
22160;SDS011;49035;48.812;11.762;2022-12-10T05:56:00;35.20;;;17.67;;
22160;SDS011;49035;48.812;11.762;2022-12-10T05:58:30;39.30;;;19.67;;
22160;SDS011;49035;48.812;11.762;2022-12-10T06:00:57;39.67;;;18.77;;
22160;SDS011;49035;48.812;11.762;2022-12-10T06:03:23;37.17;;;18.53;;
22160;SDS011;49035;48.812;11.762;2022-12-10T06:05:51;38.30;;;17.90;;
22160;SDS011;49035;48.812;11.762;2022-12-10T06:08:17;38.90;;;19.00;;
22160;SDS011;49035;48.812;11.762;2022-12-10T06:10:42;37.10;;;18.07;;
22160;SDS011;49035;48.812;11.762;2022-12-10T06:13:08;37.43;;;18.33;;
22160;SDS011;49035;48.812;11.762;2022-12-10T06:15:34;36.00;;;19.57;;
22160;SDS011;49035;48.812;11.762;2022-12-10T06:18:03;41.50;;;19.30;;
22160;SDS011;49035;48.812;11.762;2022-12-10T06:20:28;39.60;;;18.23;;
22160;SDS011;49035;48.812;11.762;2022-12-10T06:22:54;40.07;;;20.00;;
22160;SDS011;49035;48.812;11.762;2022-12-10T06:25:20;38.20;;;19.50;;
22160;SDS011;49035;48.812;11.762;2022-12-10T06:27:45;36.93;;;18.13;;
22160;SDS011;49035;48.812;11.762;2022-12-10T06:30:11;41.33;;;19.13;;
22160;SDS011;49035;48.812;11.762;2022-12-10T06:32:36;37.27;;;18.00;;
22160;SDS011;49035;48.812;11.762;2022-12-10T06:35:02;34.90;;;17.73;;
22160;SDS011;49035;48.812;11.762;2022-12-10T06:37:28;38.33;;;18.70;;
22160;SDS011;49035;48.812;11.762;2022-12-10T06:39:54;42.37;;;19.17;;
22160;SDS011;49035;48.812;11.762;2022-12-10T06:42:20;39.50;;;19.37;;
22160;SDS011;49035;48.812;11.762;2022-12-10T06:44:46;45.90;;;20.13;;
22160;SDS011;49035;48.812;11.762;2022-12-10T06:47:11;39.90;;;19.77;;
22160;SDS011;49035;48.812;11.762;2022-12-10T06:49:37;41.20;;;19.93;;
22160;SDS011;49035;48.812;11.762;2022-12-10T06:52:03;43.43;;;20.03;;
22160;SDS011;49035;48.812;11.762;2022-12-10T06:54:29;40.37;;;20.10;;
22160;SDS011;49035;48.812;11.762;2022-12-10T06:56:56;41.30;;;19.10;;
22160;SDS011;49035;48.812;11.762;2022-12-10T06:59:21;39.07;;;19.10;;
22160;SDS011;49035;48.812;11.762;2022-12-10T07:01:47;39.43;;;19.20;;
22160;SDS011;49035;48.812;11.762;2022-12-10T07:04:13;41.20;;;19.27;;
22160;SDS011;49035;48.812;11.762;2022-12-10T07:06:39;44.00;;;20.43;;
22160;SDS011;49035;48.812;11.762;2022-12-10T07:09:04;41.43;;;20.13;;
22160;SDS011;49035;48.812;11.762;2022-12-10T07:11:30;42.10;;;19.70;;
22160;SDS011;49035;48.812;11.762;2022-12-10T07:13:56;38.47;;;20.57;;
22160;SDS011;49035;48.812;11.762;2022-12-10T07:16:23;40.23;;;19.53;;
22160;SDS011;49035;48.812;11.762;2022-12-10T07:18:51;43.57;;;19.73;;
22160;SDS011;49035;48.812;11.762;2022-12-10T07:23:45;45.00;;;21.27;;
22160;SDS011;49035;48.812;11.762;2022-12-10T07:26:10;43.03;;;20.63;;
22160;SDS011;49035;48.812;11.762;2022-12-10T07:28:36;44.30;;;21.53;;
22160;SDS011;49035;48.812;11.762;2022-12-10T07:31:07;39.70;;;19.87;;
22160;SDS011;49035;48.812;11.762;2022-12-10T07:33:33;42.63;;;20.33;;
22160;SDS011;49035;48.812;11.762;2022-12-10T07:36:05;42.03;;;20.87;;
22160;SDS011;49035;48.812;11.762;2022-12-10T07:38:31;40.93;;;20.87;;
22160;SDS011;49035;48.812;11.762;2022-12-10T07:40:57;45.33;;;20.70;;
22160;SDS011;49035;48.812;11.762;2022-12-10T07:43:22;42.93;;;20.67;;
22160;SDS011;49035;48.812;11.762;2022-12-10T07:45:48;45.50;;;21.53;;
22160;SDS011;49035;48.812;11.762;2022-12-10T07:48:13;46.73;;;21.97;;
22160;SDS011;49035;48.812;11.762;2022-12-10T07:50:40;48.00;;;20.97;;
22160;SDS011;49035;48.812;11.762;2022-12-10T07:53:05;42.53;;;20.10;;
22160;SDS011;49035;48.812;11.762;2022-12-10T07:55:31;42.03;;;20.37;;
22160;SDS011;49035;48.812;11.762;2022-12-10T07:57:56;49.87;;;22.60;;
22160;SDS011;49035;48.812;11.762;2022-12-10T08:00:22;45.37;;;21.97;;
22160;SDS011;49035;48.812;11.762;2022-12-10T08:02:48;47.40;;;22.47;;
22160;SDS011;49035;48.812;11.762;2022-12-10T08:05:13;50.13;;;22.23;;
22160;SDS011;49035;48.812;11.762;2022-12-10T08:07:39;45.33;;;22.23;;
22160;SDS011;49035;48.812;11.762;2022-12-10T08:10:05;49.30;;;22.67;;
22160;SDS011;49035;48.812;11.762;2022-12-10T08:12:31;46.30;;;22.33;;
22160;SDS011;49035;48.812;11.762;2022-12-10T08:14:57;47.77;;;21.70;;
22160;SDS011;49035;48.812;11.762;2022-12-10T08:17:22;48.80;;;22.83;;
22160;SDS011;49035;48.812;11.762;2022-12-10T08:19:48;46.60;;;22.80;;
22160;SDS011;49035;48.812;11.762;2022-12-10T08:22:15;49.43;;;21.30;;
22160;SDS011;49035;48.812;11.762;2022-12-10T08:24:41;48.37;;;22.93;;
22160;SDS011;49035;48.812;11.762;2022-12-10T08:27:06;50.23;;;22.97;;
22160;SDS011;49035;48.812;11.762;2022-12-10T08:29:32;46.20;;;22.07;;
22160;SDS011;49035;48.812;11.762;2022-12-10T08:31:57;52.20;;;22.53;;
22160;SDS011;49035;48.812;11.762;2022-12-10T08:34:23;47.47;;;22.47;;
22160;SDS011;49035;48.812;11.762;2022-12-10T08:36:49;55.17;;;23.37;;
22160;SDS011;49035;48.812;11.762;2022-12-10T08:39:14;48.37;;;23.03;;
22160;SDS011;49035;48.812;11.762;2022-12-10T08:41:41;48.67;;;21.90;;
22160;SDS011;49035;48.812;11.762;2022-12-10T08:44:11;49.20;;;22.93;;
22160;SDS011;49035;48.812;11.762;2022-12-10T08:46:37;52.50;;;22.00;;
22160;SDS011;49035;48.812;11.762;2022-12-10T08:49:03;49.70;;;22.47;;
22160;SDS011;49035;48.812;11.762;2022-12-10T08:51:31;52.43;;;23.77;;
22160;SDS011;49035;48.812;11.762;2022-12-10T08:53:57;51.73;;;22.23;;
22160;SDS011;49035;48.812;11.762;2022-12-10T08:56:23;52.80;;;22.73;;
22160;SDS011;49035;48.812;11.762;2022-12-10T08:58:49;52.37;;;23.83;;
22160;SDS011;49035;48.812;11.762;2022-12-10T09:01:15;48.70;;;21.67;;
22160;SDS011;49035;48.812;11.762;2022-12-10T09:03:42;48.70;;;23.67;;
22160;SDS011;49035;48.812;11.762;2022-12-10T09:06:09;48.37;;;22.53;;
22160;SDS011;49035;48.812;11.762;2022-12-10T09:08:38;45.97;;;22.57;;
22160;SDS011;49035;48.812;11.762;2022-12-10T09:11:14;53.43;;;23.47;;
22160;SDS011;49035;48.812;11.762;2022-12-10T09:13:48;51.53;;;23.33;;
22160;SDS011;49035;48.812;11.762;2022-12-10T09:16:14;54.33;;;23.53;;
22160;SDS011;49035;48.812;11.762;2022-12-10T09:18:39;50.50;;;24.77;;
22160;SDS011;49035;48.812;11.762;2022-12-10T09:21:10;52.90;;;23.17;;
22160;SDS011;49035;48.812;11.762;2022-12-10T09:23:37;55.53;;;23.23;;
22160;SDS011;49035;48.812;11.762;2022-12-10T09:26:07;50.43;;;23.43;;
22160;SDS011;49035;48.812;11.762;2022-12-10T09:28:36;54.47;;;23.70;;
22160;SDS011;49035;48.812;11.762;2022-12-10T09:31:02;51.00;;;24.20;;
22160;SDS011;49035;48.812;11.762;2022-12-10T09:33:29;50.93;;;23.30;;
22160;SDS011;49035;48.812;11.762;2022-12-10T09:35:55;52.10;;;23.97;;
22160;SDS011;49035;48.812;11.762;2022-12-10T09:38:21;55.23;;;24.07;;
22160;SDS011;49035;48.812;11.762;2022-12-10T09:40:51;53.20;;;25.57;;
22160;SDS011;49035;48.812;11.762;2022-12-10T09:48:54;52.03;;;23.70;;
22160;SDS011;49035;48.812;11.762;2022-12-10T09:51:29;54.23;;;23.57;;
22160;SDS011;49035;48.812;11.762;2022-12-10T09:53:58;55.30;;;25.53;;
22160;SDS011;49035;48.812;11.762;2022-12-10T09:56:29;50.47;;;24.33;;
22160;SDS011;49035;48.812;11.762;2022-12-10T09:58:59;49.77;;;23.57;;
22160;SDS011;49035;48.812;11.762;2022-12-10T10:01:36;57.17;;;25.10;;
22160;SDS011;49035;48.812;11.762;2022-12-10T10:04:03;53.90;;;24.50;;
22160;SDS011;49035;48.812;11.762;2022-12-10T10:06:29;50.10;;;22.73;;
22160;SDS011;49035;48.812;11.762;2022-12-10T10:08:57;54.90;;;25.30;;
22160;SDS011;49035;48.812;11.762;2022-12-10T10:11:27;51.05;;;24.60;;
22160;SDS011;49035;48.812;11.762;2022-12-10T10:13:58;48.90;;;22.13;;
22160;SDS011;49035;48.812;11.762;2022-12-10T10:16:32;51.93;;;23.63;;
22160;SDS011;49035;48.812;11.762;2022-12-10T10:19:02;49.17;;;22.97;;
22160;SDS011;49035;48.812;11.762;2022-12-10T10:21:36;50.77;;;23.73;;
22160;SDS011;49035;48.812;11.762;2022-12-10T10:24:06;46.70;;;22.47;;
22160;SDS011;49035;48.812;11.762;2022-12-10T10:26:37;49.33;;;23.60;;
22160;SDS011;49035;48.812;11.762;2022-12-10T10:29:04;51.03;;;24.37;;
22160;SDS011;49035;48.812;11.762;2022-12-10T10:31:33;47.93;;;22.67;;
22160;SDS011;49035;48.812;11.762;2022-12-10T10:34:02;45.83;;;21.80;;
22160;SDS011;49035;48.812;11.762;2022-12-10T10:36:30;48.83;;;22.30;;
22160;SDS011;49035;48.812;11.762;2022-12-10T10:39:17;50.47;;;23.57;;
22160;SDS011;49035;48.812;11.762;2022-12-10T10:41:51;52.87;;;22.60;;
22160;SDS011;49035;48.812;11.762;2022-12-10T10:44:19;49.87;;;22.23;;
22160;SDS011;49035;48.812;11.762;2022-12-10T10:46:48;49.07;;;23.07;;
22160;SDS011;49035;48.812;11.762;2022-12-10T10:49:26;48.97;;;23.40;;
22160;SDS011;49035;48.812;11.762;2022-12-10T10:51:58;52.53;;;23.33;;
22160;SDS011;49035;48.812;11.762;2022-12-10T10:54:32;48.00;;;22.43;;
22160;SDS011;49035;48.812;11.762;2022-12-10T10:57:02;44.33;;;22.57;;
22160;SDS011;49035;48.812;11.762;2022-12-10T10:59:34;45.37;;;22.03;;
22160;SDS011;49035;48.812;11.762;2022-12-10T11:04:48;44.77;;;21.67;;
22160;SDS011;49035;48.812;11.762;2022-12-10T11:09:48;47.37;;;21.80;;
22160;SDS011;49035;48.812;11.762;2022-12-10T11:12:34;43.57;;;21.70;;
22160;SDS011;49035;48.812;11.762;2022-12-10T11:15:02;40.73;;;20.27;;
22160;SDS011;49035;48.812;11.762;2022-12-10T11:17:52;44.17;;;20.43;;
22160;SDS011;49035;48.812;11.762;2022-12-10T11:20:23;43.83;;;22.13;;
22160;SDS011;49035;48.812;11.762;2022-12-10T11:22:55;42.63;;;20.23;;
22160;SDS011;49035;48.812;11.762;2022-12-10T11:25:31;41.30;;;20.73;;
22160;SDS011;49035;48.812;11.762;2022-12-10T11:28:05;39.90;;;19.70;;
22160;SDS011;49035;48.812;11.762;2022-12-10T11:30:56;43.47;;;20.73;;
22160;SDS011;49035;48.812;11.762;2022-12-10T11:36:15;46.00;;;22.00;;
22160;SDS011;49035;48.812;11.762;2022-12-10T11:41:58;40.53;;;20.67;;
22160;SDS011;49035;48.812;11.762;2022-12-10T11:44:39;43.83;;;21.43;;
22160;SDS011;49035;48.812;11.762;2022-12-10T11:47:29;46.90;;;21.40;;
22160;SDS011;49035;48.812;11.762;2022-12-10T11:56:09;41.40;;;20.40;;
22160;SDS011;49035;48.812;11.762;2022-12-10T12:13:10;37.60;;;19.63;;
22160;SDS011;49035;48.812;11.762;2022-12-10T12:16:07;37.77;;;18.33;;
22160;SDS011;49035;48.812;11.762;2022-12-10T12:21:19;42.97;;;20.73;;
22160;SDS011;49035;48.812;11.762;2022-12-10T12:23:49;36.27;;;18.90;;
22160;SDS011;49035;48.812;11.762;2022-12-10T12:26:24;39.27;;;19.23;;
22160;SDS011;49035;48.812;11.762;2022-12-10T12:29:13;38.73;;;20.10;;
22160;SDS011;49035;48.812;11.762;2022-12-10T12:31:47;34.97;;;18.67;;
22160;SDS011;49035;48.812;11.762;2022-12-10T12:37:07;38.30;;;18.77;;
22160;SDS011;49035;48.812;11.762;2022-12-10T12:39:38;38.13;;;19.00;;
22160;SDS011;49035;48.812;11.762;2022-12-10T12:49:39;41.23;;;20.20;;
22160;SDS011;49035;48.812;11.762;2022-12-10T12:52:26;36.70;;;18.17;;
22160;SDS011;49035;48.812;11.762;2022-12-10T12:54:55;39.57;;;18.57;;
22160;SDS011;49035;48.812;11.762;2022-12-10T12:57:31;38.90;;;19.83;;
22160;SDS011;49035;48.812;11.762;2022-12-10T13:00:12;35.07;;;17.77;;
22160;SDS011;49035;48.812;11.762;2022-12-10T13:05:40;35.03;;;17.90;;
22160;SDS011;49035;48.812;11.762;2022-12-10T13:10:44;35.83;;;17.30;;
22160;SDS011;49035;48.812;11.762;2022-12-10T13:13:24;34.77;;;17.30;;
22160;SDS011;49035;48.812;11.762;2022-12-10T13:15:53;32.17;;;17.07;;
22160;SDS011;49035;48.812;11.762;2022-12-10T13:18:21;33.33;;;17.23;;
22160;SDS011;49035;48.812;11.762;2022-12-10T13:23:52;32.27;;;16.63;;
22160;SDS011;49035;48.812;11.762;2022-12-10T13:26:24;37.20;;;17.43;;
22160;SDS011;49035;48.812;11.762;2022-12-10T13:28:56;35.43;;;19.33;;
22160;SDS011;49035;48.812;11.762;2022-12-10T13:31:41;38.37;;;19.73;;
22160;SDS011;49035;48.812;11.762;2022-12-10T13:34:31;38.70;;;19.17;;
22160;SDS011;49035;48.812;11.762;2022-12-10T13:37:03;39.40;;;18.40;;
22160;SDS011;49035;48.812;11.762;2022-12-10T13:39:32;35.60;;;18.27;;
22160;SDS011;49035;48.812;11.762;2022-12-10T13:45:16;42.00;;;19.47;;
22160;SDS011;49035;48.812;11.762;2022-12-10T13:47:52;43.33;;;20.80;;
22160;SDS011;49035;48.812;11.762;2022-12-10T13:53:05;40.60;;;20.73;;
22160;SDS011;49035;48.812;11.762;2022-12-10T14:01:31;43.47;;;21.47;;
22160;SDS011;49035;48.812;11.762;2022-12-10T14:06:46;42.63;;;22.43;;
22160;SDS011;49035;48.812;11.762;2022-12-10T14:09:18;45.80;;;23.13;;
22160;SDS011;49035;48.812;11.762;2022-12-10T14:14:25;43.63;;;21.63;;
22160;SDS011;49035;48.812;11.762;2022-12-10T14:17:02;40.60;;;20.47;;
22160;SDS011;49035;48.812;11.762;2022-12-10T14:19:43;39.67;;;20.43;;
22160;SDS011;49035;48.812;11.762;2022-12-10T14:22:18;39.33;;;20.30;;
22160;SDS011;49035;48.812;11.762;2022-12-10T14:24:48;47.27;;;22.23;;
22160;SDS011;49035;48.812;11.762;2022-12-10T14:27:15;43.30;;;21.77;;
22160;SDS011;49035;48.812;11.762;2022-12-10T14:29:45;44.33;;;22.07;;
22160;SDS011;49035;48.812;11.762;2022-12-10T14:32:15;45.07;;;21.67;;
22160;SDS011;49035;48.812;11.762;2022-12-10T14:34:46;40.27;;;20.87;;
22160;SDS011;49035;48.812;11.762;2022-12-10T14:37:16;44.20;;;22.00;;
22160;SDS011;49035;48.812;11.762;2022-12-10T14:39:45;44.47;;;21.80;;
22160;SDS011;49035;48.812;11.762;2022-12-10T14:42:12;43.40;;;20.43;;
22160;SDS011;49035;48.812;11.762;2022-12-10T14:44:40;45.57;;;21.47;;
22160;SDS011;49035;48.812;11.762;2022-12-10T14:47:17;44.40;;;21.23;;
22160;SDS011;49035;48.812;11.762;2022-12-10T14:49:46;44.33;;;22.53;;
22160;SDS011;49035;48.812;11.762;2022-12-10T14:52:19;43.53;;;21.90;;
22160;SDS011;49035;48.812;11.762;2022-12-10T14:54:49;44.20;;;21.17;;
22160;SDS011;49035;48.812;11.762;2022-12-10T14:57:22;45.63;;;21.10;;
22160;SDS011;49035;48.812;11.762;2022-12-10T15:02:22;43.97;;;21.83;;
22160;SDS011;49035;48.812;11.762;2022-12-10T15:04:52;43.77;;;22.43;;
22160;SDS011;49035;48.812;11.762;2022-12-10T15:07:30;41.83;;;21.20;;
22160;SDS011;49035;48.812;11.762;2022-12-10T15:10:00;42.00;;;21.43;;
22160;SDS011;49035;48.812;11.762;2022-12-10T15:12:30;43.63;;;20.80;;
22160;SDS011;49035;48.812;11.762;2022-12-10T15:15:04;47.83;;;21.73;;
22160;SDS011;49035;48.812;11.762;2022-12-10T15:17:41;39.50;;;19.77;;
22160;SDS011;49035;48.812;11.762;2022-12-10T15:20:18;45.47;;;22.17;;
22160;SDS011;49035;48.812;11.762;2022-12-10T15:22:49;47.80;;;22.80;;
22160;SDS011;49035;48.812;11.762;2022-12-10T15:25:20;45.40;;;21.80;;
22160;SDS011;49035;48.812;11.762;2022-12-10T15:27:58;49.63;;;23.40;;
22160;SDS011;49035;48.812;11.762;2022-12-10T15:30:33;45.50;;;23.20;;
22160;SDS011;49035;48.812;11.762;2022-12-10T15:33:04;45.20;;;22.47;;
22160;SDS011;49035;48.812;11.762;2022-12-10T15:35:53;46.87;;;22.50;;
22160;SDS011;49035;48.812;11.762;2022-12-10T15:38:22;49.67;;;23.40;;
22160;SDS011;49035;48.812;11.762;2022-12-10T15:40:48;44.33;;;23.23;;
22160;SDS011;49035;48.812;11.762;2022-12-10T15:43:24;44.33;;;22.70;;
22160;SDS011;49035;48.812;11.762;2022-12-10T15:45:54;45.93;;;22.07;;
22160;SDS011;49035;48.812;11.762;2022-12-10T15:48:20;46.70;;;23.70;;
22160;SDS011;49035;48.812;11.762;2022-12-10T15:50:46;44.37;;;23.40;;
22160;SDS011;49035;48.812;11.762;2022-12-10T15:53:24;48.40;;;23.90;;
22160;SDS011;49035;48.812;11.762;2022-12-10T15:55:52;49.57;;;23.67;;
22160;SDS011;49035;48.812;11.762;2022-12-10T15:58:18;48.70;;;23.97;;
22160;SDS011;49035;48.812;11.762;2022-12-10T16:00:43;38.97;;;21.07;;
22160;SDS011;49035;48.812;11.762;2022-12-10T16:03:12;51.20;;;23.87;;
22160;SDS011;49035;48.812;11.762;2022-12-10T16:05:39;50.80;;;24.33;;
22160;SDS011;49035;48.812;11.762;2022-12-10T16:08:09;49.57;;;23.10;;